sensor_id;sensor_type;location;lat;lon;timestamp;pressure;altitude;pressure_sealevel;temperature;humidity
15694;BME280;7947;48.834;9.132;2023-05-07T00:00:25;98083.03;;;14.61;83.70
15694;BME280;7947;48.834;9.132;2023-05-07T00:03:28;98087.31;;;14.62;83.88
15694;BME280;7947;48.834;9.132;2023-05-07T00:06:32;98088.06;;;14.54;84.09
15694;BME280;7947;48.834;9.132;2023-05-07T00:09:36;98080.41;;;14.56;84.20
15694;BME280;7947;48.834;9.132;2023-05-07T00:12:40;98089.75;;;14.63;84.51
15694;BME280;7947;48.834;9.132;2023-05-07T00:15:43;98087.53;;;14.65;84.44
15694;BME280;7947;48.834;9.132;2023-05-07T00:18:45;98090.44;;;14.69;84.21
15694;BME280;7947;48.834;9.132;2023-05-07T00:21:48;98094.22;;;14.68;84.17
15694;BME280;7947;48.834;9.132;2023-05-07T00:24:52;98081.63;;;14.63;83.97
15694;BME280;7947;48.834;9.132;2023-05-07T00:27:55;98080.53;;;14.64;83.79
15694;BME280;7947;48.834;9.132;2023-05-07T00:30:58;98079.44;;;14.65;83.86
15694;BME280;7947;48.834;9.132;2023-05-07T00:34:01;98080.72;;;14.68;83.79
15694;BME280;7947;48.834;9.132;2023-05-07T00:37:04;98079.53;;;14.60;83.33
15694;BME280;7947;48.834;9.132;2023-05-07T00:40:10;98077.72;;;14.56;83.61
15694;BME280;7947;48.834;9.132;2023-05-07T00:43:13;98076.63;;;14.57;83.38
15694;BME280;7947;48.834;9.132;2023-05-07T00:46:16;98069.25;;;14.48;83.54
15694;BME280;7947;48.834;9.132;2023-05-07T00:49:19;98066.66;;;14.43;84.40
15694;BME280;7947;48.834;9.132;2023-05-07T00:52:25;98060.97;;;14.45;83.97
15694;BME280;7947;48.834;9.132;2023-05-07T00:55:30;98071.75;;;14.45;83.75
15694;BME280;7947;48.834;9.132;2023-05-07T00:58:33;98065.03;;;14.42;83.59
15694;BME280;7947;48.834;9.132;2023-05-07T01:01:36;98064.84;;;14.39;83.98
15694;BME280;7947;48.834;9.132;2023-05-07T01:04:39;98059.25;;;14.35;83.96
15694;BME280;7947;48.834;9.132;2023-05-07T01:07:42;98056.88;;;14.34;83.96
15694;BME280;7947;48.834;9.132;2023-05-07T01:10:47;98068.75;;;14.33;83.76
15694;BME280;7947;48.834;9.132;2023-05-07T01:13:50;98062.94;;;14.26;84.11
15694;BME280;7947;48.834;9.132;2023-05-07T01:16:53;98059.44;;;14.25;83.85
15694;BME280;7947;48.834;9.132;2023-05-07T01:19:56;98061.94;;;14.22;84.10
15694;BME280;7947;48.834;9.132;2023-05-07T01:23:01;98067.91;;;14.19;84.19
15694;BME280;7947;48.834;9.132;2023-05-07T01:26:05;98062.31;;;14.15;84.24
15694;BME280;7947;48.834;9.132;2023-05-07T01:29:08;98063.44;;;14.14;84.14
15694;BME280;7947;48.834;9.132;2023-05-07T01:32:11;98061.03;;;14.13;84.44
15694;BME280;7947;48.834;9.132;2023-05-07T01:35:19;98061.81;;;14.13;84.28
15694;BME280;7947;48.834;9.132;2023-05-07T01:38:23;98062.94;;;14.12;84.50
15694;BME280;7947;48.834;9.132;2023-05-07T01:41:26;98067.13;;;14.05;84.57
15694;BME280;7947;48.834;9.132;2023-05-07T01:44:29;98059.81;;;14.05;84.93
15694;BME280;7947;48.834;9.132;2023-05-07T01:47:32;98062.81;;;14.04;85.11
15694;BME280;7947;48.834;9.132;2023-05-07T01:50:36;98061.91;;;13.95;85.39
15694;BME280;7947;48.834;9.132;2023-05-07T01:53:41;98060.03;;;13.95;85.22
15694;BME280;7947;48.834;9.132;2023-05-07T01:56:45;98052.72;;;13.96;85.71
15694;BME280;7947;48.834;9.132;2023-05-07T01:59:49;98054.22;;;14.02;85.79
15694;BME280;7947;48.834;9.132;2023-05-07T02:02:52;98066.31;;;14.04;86.25
15694;BME280;7947;48.834;9.132;2023-05-07T02:05:55;98059.72;;;14.10;86.73
15694;BME280;7947;48.834;9.132;2023-05-07T02:08:59;98054.03;;;14.12;86.68
15694;BME280;7947;48.834;9.132;2023-05-07T02:12:02;98059.13;;;14.13;86.81
15694;BME280;7947;48.834;9.132;2023-05-07T02:15:06;98058.63;;;14.11;86.66
15694;BME280;7947;48.834;9.132;2023-05-07T02:18:09;98054.63;;;14.09;86.62
15694;BME280;7947;48.834;9.132;2023-05-07T02:21:11;98053.63;;;14.05;86.67
15694;BME280;7947;48.834;9.132;2023-05-07T02:24:15;98066.31;;;14.04;86.79
15694;BME280;7947;48.834;9.132;2023-05-07T02:27:20;98062.00;;;14.03;86.29
15694;BME280;7947;48.834;9.132;2023-05-07T02:30:23;98066.00;;;14.06;86.18
15694;BME280;7947;48.834;9.132;2023-05-07T02:33:26;98065.31;;;14.00;85.87
15694;BME280;7947;48.834;9.132;2023-05-07T02:36:29;98052.19;;;13.94;85.18
15694;BME280;7947;48.834;9.132;2023-05-07T02:39:33;98063.00;;;13.94;84.65
15694;BME280;7947;48.834;9.132;2023-05-07T02:42:36;98067.59;;;13.93;84.57
15694;BME280;7947;48.834;9.132;2023-05-07T02:45:39;98062.78;;;13.90;84.43
15694;BME280;7947;48.834;9.132;2023-05-07T02:48:41;98064.47;;;13.86;84.31
15694;BME280;7947;48.834;9.132;2023-05-07T02:51:44;98059.19;;;13.81;84.32
15694;BME280;7947;48.834;9.132;2023-05-07T02:54:48;98065.25;;;13.73;84.32
15694;BME280;7947;48.834;9.132;2023-05-07T02:57:51;98059.47;;;13.66;84.66
15694;BME280;7947;48.834;9.132;2023-05-07T03:00:54;98054.94;;;13.62;84.03
15694;BME280;7947;48.834;9.132;2023-05-07T03:03:57;98049.88;;;13.60;83.89
15694;BME280;7947;48.834;9.132;2023-05-07T03:07:00;98046.72;;;13.53;84.03
15694;BME280;7947;48.834;9.132;2023-05-07T03:10:04;98044.03;;;13.53;84.04
15694;BME280;7947;48.834;9.132;2023-05-07T03:13:07;98040.44;;;13.44;83.78
15694;BME280;7947;48.834;9.132;2023-05-07T03:16:10;98032.34;;;13.44;84.43
15694;BME280;7947;48.834;9.132;2023-05-07T03:19:13;98035.34;;;13.42;84.25
15694;BME280;7947;48.834;9.132;2023-05-07T03:22:16;98038.41;;;13.36;84.15
15694;BME280;7947;48.834;9.132;2023-05-07T03:25:20;98035.50;;;13.32;84.52
15694;BME280;7947;48.834;9.132;2023-05-07T03:28:23;98040.19;;;13.27;84.66
15694;BME280;7947;48.834;9.132;2023-05-07T03:31:26;98037.59;;;13.22;85.08
15694;BME280;7947;48.834;9.132;2023-05-07T03:34:29;98039.53;;;13.16;85.14
15694;BME280;7947;48.834;9.132;2023-05-07T03:37:31;98034.44;;;13.15;85.20
15694;BME280;7947;48.834;9.132;2023-05-07T03:40:35;98044.19;;;13.11;84.99
15694;BME280;7947;48.834;9.132;2023-05-07T03:43:38;98046.38;;;13.09;85.29
15694;BME280;7947;48.834;9.132;2023-05-07T03:46:41;98043.19;;;13.07;84.39
15694;BME280;7947;48.834;9.132;2023-05-07T03:49:44;98044.78;;;13.08;85.15
15694;BME280;7947;48.834;9.132;2023-05-07T03:52:47;98049.88;;;13.09;84.73
15694;BME280;7947;48.834;9.132;2023-05-07T03:55:53;98047.19;;;13.09;84.57
15694;BME280;7947;48.834;9.132;2023-05-07T03:58:56;98045.34;;;13.05;84.49
15694;BME280;7947;48.834;9.132;2023-05-07T04:01:59;98046.72;;;13.02;84.63
15694;BME280;7947;48.834;9.132;2023-05-07T04:05:06;98050.81;;;13.00;84.75
15694;BME280;7947;48.834;9.132;2023-05-07T04:08:09;98051.31;;;13.02;85.03
15694;BME280;7947;48.834;9.132;2023-05-07T04:11:13;98055.97;;;12.96;84.96
15694;BME280;7947;48.834;9.132;2023-05-07T04:14:16;98052.97;;;12.98;85.36
15694;BME280;7947;48.834;9.132;2023-05-07T04:17:18;98061.66;;;12.95;85.68
15694;BME280;7947;48.834;9.132;2023-05-07T04:20:21;98057.84;;;12.96;86.23
15694;BME280;7947;48.834;9.132;2023-05-07T04:23:24;98058.97;;;12.95;86.80
15694;BME280;7947;48.834;9.132;2023-05-07T04:26:28;98067.59;;;12.92;86.70
15694;BME280;7947;48.834;9.132;2023-05-07T04:29:31;98068.31;;;12.97;86.97
15694;BME280;7947;48.834;9.132;2023-05-07T04:32:34;98070.69;;;13.04;86.70
15694;BME280;7947;48.834;9.132;2023-05-07T04:35:37;98063.94;;;13.06;86.82
15694;BME280;7947;48.834;9.132;2023-05-07T04:38:41;98063.03;;;13.11;86.58
15694;BME280;7947;48.834;9.132;2023-05-07T04:41:45;98075.44;;;13.12;87.11
15694;BME280;7947;48.834;9.132;2023-05-07T04:44:52;98074.31;;;13.13;87.44
15694;BME280;7947;48.834;9.132;2023-05-07T04:47:55;98069.94;;;13.17;87.83
15694;BME280;7947;48.834;9.132;2023-05-07T04:50:58;98077.38;;;13.25;88.03
15694;BME280;7947;48.834;9.132;2023-05-07T04:54:01;98088.44;;;13.23;88.32
15694;BME280;7947;48.834;9.132;2023-05-07T04:57:05;98080.94;;;13.20;89.10
15694;BME280;7947;48.834;9.132;2023-05-07T05:00:08;98085.25;;;13.21;89.25
15694;BME280;7947;48.834;9.132;2023-05-07T05:03:12;98081.38;;;13.27;89.39
15694;BME280;7947;48.834;9.132;2023-05-07T05:06:15;98081.28;;;13.32;89.72
15694;BME280;7947;48.834;9.132;2023-05-07T05:09:17;98083.69;;;13.34;90.00
15694;BME280;7947;48.834;9.132;2023-05-07T05:12:21;98085.50;;;13.38;89.53
15694;BME280;7947;48.834;9.132;2023-05-07T05:15:24;98088.41;;;13.42;89.59
15694;BME280;7947;48.834;9.132;2023-05-07T05:18:27;98094.81;;;13.46;90.02
15694;BME280;7947;48.834;9.132;2023-05-07T05:21:31;98099.34;;;13.50;89.95
15694;BME280;7947;48.834;9.132;2023-05-07T05:24:34;98101.44;;;13.53;89.91
15694;BME280;7947;48.834;9.132;2023-05-07T05:27:40;98101.44;;;13.53;90.49
15694;BME280;7947;48.834;9.132;2023-05-07T05:30:47;98092.97;;;13.60;90.96
15694;BME280;7947;48.834;9.132;2023-05-07T05:33:50;98097.91;;;13.72;91.40
15694;BME280;7947;48.834;9.132;2023-05-07T05:36:53;98100.13;;;13.83;91.42
15694;BME280;7947;48.834;9.132;2023-05-07T05:39:55;98104.75;;;13.96;91.32
15694;BME280;7947;48.834;9.132;2023-05-07T05:42:59;98109.34;;;14.09;91.09
15694;BME280;7947;48.834;9.132;2023-05-07T05:46:02;98109.38;;;14.23;90.51
15694;BME280;7947;48.834;9.132;2023-05-07T05:49:06;98119.13;;;14.37;89.54
15694;BME280;7947;48.834;9.132;2023-05-07T05:52:08;98106.44;;;14.52;88.08
15694;BME280;7947;48.834;9.132;2023-05-07T05:55:12;98103.81;;;14.60;86.60
15694;BME280;7947;48.834;9.132;2023-05-07T05:58:16;98104.13;;;14.72;86.68
15694;BME280;7947;48.834;9.132;2023-05-07T06:01:18;98109.50;;;14.86;86.83
15694;BME280;7947;48.834;9.132;2023-05-07T06:04:21;98109.16;;;15.01;87.09
15694;BME280;7947;48.834;9.132;2023-05-07T06:07:24;98114.84;;;15.13;87.13
15694;BME280;7947;48.834;9.132;2023-05-07T06:10:27;98118.09;;;15.23;86.46
15694;BME280;7947;48.834;9.132;2023-05-07T06:13:32;98120.88;;;15.32;85.88
15694;BME280;7947;48.834;9.132;2023-05-07T06:16:35;98109.94;;;15.37;84.17
15694;BME280;7947;48.834;9.132;2023-05-07T06:19:39;98121.53;;;15.51;83.68
15694;BME280;7947;48.834;9.132;2023-05-07T06:22:42;98120.63;;;15.56;81.97
15694;BME280;7947;48.834;9.132;2023-05-07T06:25:48;98122.16;;;15.70;82.19
15694;BME280;7947;48.834;9.132;2023-05-07T06:28:52;98120.56;;;15.91;82.56
15694;BME280;7947;48.834;9.132;2023-05-07T06:31:55;98136.59;;;16.10;82.14
15694;BME280;7947;48.834;9.132;2023-05-07T06:34:58;98133.00;;;16.23;80.29
15694;BME280;7947;48.834;9.132;2023-05-07T06:38:01;98122.06;;;16.37;80.06
15694;BME280;7947;48.834;9.132;2023-05-07T06:41:05;98128.22;;;16.51;79.37
15694;BME280;7947;48.834;9.132;2023-05-07T06:44:09;98130.34;;;16.71;79.18
15694;BME280;7947;48.834;9.132;2023-05-07T06:47:12;98119.09;;;16.94;77.28
15694;BME280;7947;48.834;9.132;2023-05-07T06:50:17;98117.72;;;17.23;76.57
15694;BME280;7947;48.834;9.132;2023-05-07T06:53:19;98111.69;;;17.51;75.17
15694;BME280;7947;48.834;9.132;2023-05-07T06:56:22;98113.25;;;17.69;71.88
15694;BME280;7947;48.834;9.132;2023-05-07T06:59:27;98115.78;;;18.00;72.00
15694;BME280;7947;48.834;9.132;2023-05-07T07:02:30;98116.34;;;18.23;72.57
15694;BME280;7947;48.834;9.132;2023-05-07T07:05:33;98117.69;;;18.54;71.25
15694;BME280;7947;48.834;9.132;2023-05-07T07:08:36;98112.81;;;18.77;68.16
15694;BME280;7947;48.834;9.132;2023-05-07T07:11:40;98105.59;;;18.81;67.97
15694;BME280;7947;48.834;9.132;2023-05-07T07:14:44;98106.59;;;18.97;66.99
15694;BME280;7947;48.834;9.132;2023-05-07T07:17:48;98101.25;;;19.09;65.99
15694;BME280;7947;48.834;9.132;2023-05-07T07:20:51;98107.28;;;19.15;67.75
15694;BME280;7947;48.834;9.132;2023-05-07T07:23:53;98093.75;;;19.06;66.92
15694;BME280;7947;48.834;9.132;2023-05-07T07:26:56;98103.97;;;19.09;66.51
15694;BME280;7947;48.834;9.132;2023-05-07T07:30:00;98109.16;;;19.23;66.47
15694;BME280;7947;48.834;9.132;2023-05-07T07:33:03;98102.94;;;19.43;66.49
15694;BME280;7947;48.834;9.132;2023-05-07T07:36:07;98106.81;;;19.74;65.56
15694;BME280;7947;48.834;9.132;2023-05-07T07:39:10;98109.06;;;19.93;64.85
15694;BME280;7947;48.834;9.132;2023-05-07T07:42:12;98106.56;;;20.00;65.05
15694;BME280;7947;48.834;9.132;2023-05-07T07:45:17;98109.84;;;19.94;63.09
15694;BME280;7947;48.834;9.132;2023-05-07T07:48:19;98114.09;;;19.83;64.22
15694;BME280;7947;48.834;9.132;2023-05-07T07:51:22;98109.53;;;19.74;64.19
15694;BME280;7947;48.834;9.132;2023-05-07T07:54:25;98125.31;;;19.48;64.60
15694;BME280;7947;48.834;9.132;2023-05-07T07:57:28;98116.41;;;19.60;66.13
15694;BME280;7947;48.834;9.132;2023-05-07T08:00:32;98116.00;;;19.70;66.99
15694;BME280;7947;48.834;9.132;2023-05-07T08:03:37;98104.78;;;19.71;65.41
15694;BME280;7947;48.834;9.132;2023-05-07T08:06:40;98111.31;;;19.58;66.01
15694;BME280;7947;48.834;9.132;2023-05-07T08:09:43;98112.75;;;19.56;65.74
15694;BME280;7947;48.834;9.132;2023-05-07T08:12:46;98115.22;;;19.49;65.49
15694;BME280;7947;48.834;9.132;2023-05-07T08:15:51;98121.25;;;19.54;66.17
15694;BME280;7947;48.834;9.132;2023-05-07T08:18:53;98121.03;;;19.59;67.05
15694;BME280;7947;48.834;9.132;2023-05-07T08:21:56;98120.41;;;19.74;65.49
15694;BME280;7947;48.834;9.132;2023-05-07T08:25:01;98112.66;;;19.85;65.42
15694;BME280;7947;48.834;9.132;2023-05-07T08:28:04;98112.47;;;20.02;65.75
15694;BME280;7947;48.834;9.132;2023-05-07T08:31:11;98120.44;;;20.07;64.49
15694;BME280;7947;48.834;9.132;2023-05-07T08:34:14;98112.72;;;20.09;65.92
15694;BME280;7947;48.834;9.132;2023-05-07T08:37:17;98107.44;;;20.25;67.02
15694;BME280;7947;48.834;9.132;2023-05-07T08:40:20;98117.94;;;20.47;67.54
15694;BME280;7947;48.834;9.132;2023-05-07T08:43:27;98115.22;;;20.71;64.70
15694;BME280;7947;48.834;9.132;2023-05-07T08:46:32;98111.16;;;21.01;63.75
15694;BME280;7947;48.834;9.132;2023-05-07T08:49:34;98111.78;;;21.22;62.64
15694;BME280;7947;48.834;9.132;2023-05-07T08:52:38;98120.81;;;21.50;63.33
15694;BME280;7947;48.834;9.132;2023-05-07T08:55:42;98111.28;;;21.84;61.76
15694;BME280;7947;48.834;9.132;2023-05-07T08:58:44;98112.38;;;22.11;58.79
15694;BME280;7947;48.834;9.132;2023-05-07T09:01:48;98112.78;;;22.40;58.79
15694;BME280;7947;48.834;9.132;2023-05-07T09:04:51;98113.25;;;22.58;57.21
15694;BME280;7947;48.834;9.132;2023-05-07T09:07:54;98109.19;;;22.83;56.65
15694;BME280;7947;48.834;9.132;2023-05-07T09:10:58;98110.22;;;22.94;56.36
15694;BME280;7947;48.834;9.132;2023-05-07T09:14:01;98099.63;;;23.08;54.29
15694;BME280;7947;48.834;9.132;2023-05-07T09:17:06;98100.09;;;23.29;58.44
15694;BME280;7947;48.834;9.132;2023-05-07T09:20:09;98094.78;;;23.56;55.26
15694;BME280;7947;48.834;9.132;2023-05-07T09:23:13;98090.91;;;23.57;53.12
15694;BME280;7947;48.834;9.132;2023-05-07T09:26:16;98086.38;;;23.64;53.30
15694;BME280;7947;48.834;9.132;2023-05-07T09:29:19;98082.56;;;23.69;52.23
15694;BME280;7947;48.834;9.132;2023-05-07T09:32:24;98078.56;;;23.85;55.13
15694;BME280;7947;48.834;9.132;2023-05-07T09:35:29;98070.84;;;23.91;53.24
15694;BME280;7947;48.834;9.132;2023-05-07T09:38:33;98071.03;;;23.79;51.05
15694;BME280;7947;48.834;9.132;2023-05-07T09:41:43;98075.19;;;23.92;52.52
15694;BME280;7947;48.834;9.132;2023-05-07T09:44:46;98077.69;;;24.00;53.30
15694;BME280;7947;48.834;9.132;2023-05-07T09:47:54;98069.38;;;24.16;52.52
15694;BME280;7947;48.834;9.132;2023-05-07T09:51:02;98068.78;;;24.26;52.41
15694;BME280;7947;48.834;9.132;2023-05-07T09:54:07;98071.09;;;24.24;51.70
15694;BME280;7947;48.834;9.132;2023-05-07T09:57:11;98074.38;;;24.33;53.96
15694;BME280;7947;48.834;9.132;2023-05-07T10:00:14;98075.78;;;24.46;51.64
15694;BME280;7947;48.834;9.132;2023-05-07T10:03:19;98077.19;;;24.59;51.58
15694;BME280;7947;48.834;9.132;2023-05-07T10:06:24;98071.63;;;24.78;52.87
15694;BME280;7947;48.834;9.132;2023-05-07T10:09:27;98058.81;;;24.86;50.14
15694;BME280;7947;48.834;9.132;2023-05-07T10:12:32;98058.13;;;24.92;49.30
15694;BME280;7947;48.834;9.132;2023-05-07T10:15:40;98052.31;;;24.97;50.62
15694;BME280;7947;48.834;9.132;2023-05-07T10:18:45;98048.97;;;25.11;50.08
15694;BME280;7947;48.834;9.132;2023-05-07T10:21:54;98050.84;;;25.03;49.81
15694;BME280;7947;48.834;9.132;2023-05-07T10:24:59;98041.44;;;25.04;47.04
15694;BME280;7947;48.834;9.132;2023-05-07T10:28:08;98042.38;;;25.16;46.89
15694;BME280;7947;48.834;9.132;2023-05-07T10:31:23;98035.97;;;25.04;48.63
15694;BME280;7947;48.834;9.132;2023-05-07T10:34:37;98034.69;;;24.72;49.64
15694;BME280;7947;48.834;9.132;2023-05-07T10:37:41;98038.06;;;24.40;47.36
15694;BME280;7947;48.834;9.132;2023-05-07T10:40:44;98043.09;;;23.92;49.94
15694;BME280;7947;48.834;9.132;2023-05-07T10:43:48;98037.44;;;23.63;49.13
15694;BME280;7947;48.834;9.132;2023-05-07T10:47:04;98034.91;;;23.54;51.38
15694;BME280;7947;48.834;9.132;2023-05-07T10:50:24;98042.63;;;23.49;50.91
15694;BME280;7947;48.834;9.132;2023-05-07T10:53:27;98037.59;;;23.51;49.48
15694;BME280;7947;48.834;9.132;2023-05-07T10:56:30;98039.03;;;23.45;50.61
15694;BME280;7947;48.834;9.132;2023-05-07T10:59:37;98037.31;;;23.37;50.57
15694;BME280;7947;48.834;9.132;2023-05-07T11:03:06;98033.44;;;23.38;52.40
15694;BME280;7947;48.834;9.132;2023-05-07T11:06:13;98038.84;;;23.34;51.21
15694;BME280;7947;48.834;9.132;2023-05-07T11:09:16;98041.31;;;23.23;51.36
15694;BME280;7947;48.834;9.132;2023-05-07T11:12:46;98035.53;;;23.09;53.56
15694;BME280;7947;48.834;9.132;2023-05-07T11:15:50;98031.78;;;22.98;55.26
15694;BME280;7947;48.834;9.132;2023-05-07T11:18:55;98030.47;;;22.92;55.96
15694;BME280;7947;48.834;9.132;2023-05-07T11:21:59;98031.44;;;22.84;55.70
15694;BME280;7947;48.834;9.132;2023-05-07T11:25:03;98030.50;;;22.77;56.33
15694;BME280;7947;48.834;9.132;2023-05-07T11:28:07;98024.09;;;22.69;56.87
15694;BME280;7947;48.834;9.132;2023-05-07T11:31:11;98023.22;;;22.65;61.86
15694;BME280;7947;48.834;9.132;2023-05-07T11:34:15;98025.06;;;22.61;60.32
15694;BME280;7947;48.834;9.132;2023-05-07T11:37:25;98023.50;;;22.60;57.40
15694;BME280;7947;48.834;9.132;2023-05-07T11:40:31;98021.78;;;22.56;58.31
15694;BME280;7947;48.834;9.132;2023-05-07T11:43:34;98014.38;;;22.56;58.52
15694;BME280;7947;48.834;9.132;2023-05-07T11:46:43;98017.03;;;22.53;58.46
15694;BME280;7947;48.834;9.132;2023-05-07T11:49:47;98025.06;;;22.45;59.45
15694;BME280;7947;48.834;9.132;2023-05-07T11:52:51;98017.06;;;22.37;59.44
15694;BME280;7947;48.834;9.132;2023-05-07T11:55:55;98028.16;;;22.28;60.10
15694;BME280;7947;48.834;9.132;2023-05-07T11:58:58;98029.22;;;22.24;61.29
15694;BME280;7947;48.834;9.132;2023-05-07T12:02:01;98040.41;;;22.19;59.43
15694;BME280;7947;48.834;9.132;2023-05-07T12:05:04;98040.03;;;22.05;59.64
15694;BME280;7947;48.834;9.132;2023-05-07T12:08:13;98043.31;;;21.95;60.42
15694;BME280;7947;48.834;9.132;2023-05-07T12:11:23;98040.81;;;21.90;61.95
15694;BME280;7947;48.834;9.132;2023-05-07T12:14:27;98042.94;;;21.81;62.44
15694;BME280;7947;48.834;9.132;2023-05-07T12:17:30;98038.84;;;21.75;64.61
15694;BME280;7947;48.834;9.132;2023-05-07T12:20:33;98044.13;;;21.68;64.82
15694;BME280;7947;48.834;9.132;2023-05-07T12:23:38;98045.16;;;21.63;63.40
15694;BME280;7947;48.834;9.132;2023-05-07T12:26:41;98043.31;;;21.67;59.40
15694;BME280;7947;48.834;9.132;2023-05-07T12:29:44;98042.06;;;21.65;60.21
15694;BME280;7947;48.834;9.132;2023-05-07T12:32:52;98049.72;;;21.59;61.50
15694;BME280;7947;48.834;9.132;2023-05-07T12:35:55;98049.16;;;21.53;62.51
15694;BME280;7947;48.834;9.132;2023-05-07T12:39:00;98062.94;;;21.45;62.99
15694;BME280;7947;48.834;9.132;2023-05-07T12:42:03;98079.25;;;21.29;63.91
15694;BME280;7947;48.834;9.132;2023-05-07T12:45:09;98082.41;;;21.04;64.75
15694;BME280;7947;48.834;9.132;2023-05-07T12:48:13;98090.69;;;20.83;65.47
15694;BME280;7947;48.834;9.132;2023-05-07T12:51:18;98103.41;;;20.55;67.71
15694;BME280;7947;48.834;9.132;2023-05-07T12:54:40;98098.94;;;20.38;67.62
15694;BME280;7947;48.834;9.132;2023-05-07T12:57:45;98103.03;;;20.20;67.28
15694;BME280;7947;48.834;9.132;2023-05-07T13:00:49;98108.59;;;19.91;62.90
15694;BME280;7947;48.834;9.132;2023-05-07T13:03:52;98114.22;;;19.74;64.74
15694;BME280;7947;48.834;9.132;2023-05-07T13:06:55;98106.66;;;19.38;65.02
15694;BME280;7947;48.834;9.132;2023-05-07T13:09:59;98101.56;;;19.28;65.93
15694;BME280;7947;48.834;9.132;2023-05-07T13:13:02;98104.69;;;19.18;66.88
15694;BME280;7947;48.834;9.132;2023-05-07T13:16:07;98102.84;;;19.10;67.37
15694;BME280;7947;48.834;9.132;2023-05-07T13:19:11;98108.00;;;19.03;68.22
15694;BME280;7947;48.834;9.132;2023-05-07T13:22:14;98108.38;;;18.93;69.68
15694;BME280;7947;48.834;9.132;2023-05-07T13:25:18;98122.16;;;18.88;72.75
15694;BME280;7947;48.834;9.132;2023-05-07T13:28:20;98132.47;;;18.74;72.94
15694;BME280;7947;48.834;9.132;2023-05-07T13:31:23;98136.75;;;18.46;73.58
15694;BME280;7947;48.834;9.132;2023-05-07T13:34:28;98134.41;;;18.27;74.71
15694;BME280;7947;48.834;9.132;2023-05-07T13:37:30;98123.59;;;18.01;76.04
15694;BME280;7947;48.834;9.132;2023-05-07T13:40:35;98124.88;;;17.87;78.31
15694;BME280;7947;48.834;9.132;2023-05-07T13:43:38;98113.75;;;17.80;79.01
15694;BME280;7947;48.834;9.132;2023-05-07T13:46:41;98103.50;;;17.77;81.48
15694;BME280;7947;48.834;9.132;2023-05-07T13:49:44;98101.00;;;17.55;80.65
15694;BME280;7947;48.834;9.132;2023-05-07T13:52:47;98094.75;;;17.46;80.49
15694;BME280;7947;48.834;9.132;2023-05-07T13:55:53;98091.72;;;17.47;80.76
15694;BME280;7947;48.834;9.132;2023-05-07T13:58:56;98092.53;;;17.48;79.58
15694;BME280;7947;48.834;9.132;2023-05-07T14:02:01;98093.81;;;17.50;79.04
15694;BME280;7947;48.834;9.132;2023-05-07T14:05:05;98096.38;;;17.55;78.51
15694;BME280;7947;48.834;9.132;2023-05-07T14:08:07;98120.16;;;17.67;78.24
15694;BME280;7947;48.834;9.132;2023-05-07T14:11:12;98136.88;;;17.77;80.33
15694;BME280;7947;48.834;9.132;2023-05-07T14:14:14;98156.66;;;17.78;78.80
15694;BME280;7947;48.834;9.132;2023-05-07T14:17:17;98162.56;;;17.80;78.07
15694;BME280;7947;48.834;9.132;2023-05-07T14:20:21;98165.91;;;17.85;79.19
15694;BME280;7947;48.834;9.132;2023-05-07T14:23:24;98163.19;;;17.85;78.86
15694;BME280;7947;48.834;9.132;2023-05-07T14:26:30;98157.16;;;17.88;77.95
15694;BME280;7947;48.834;9.132;2023-05-07T14:29:32;98154.75;;;17.78;79.50
15694;BME280;7947;48.834;9.132;2023-05-07T14:32:36;98157.16;;;17.80;80.39
15694;BME280;7947;48.834;9.132;2023-05-07T14:35:39;98163.06;;;17.82;79.99
15694;BME280;7947;48.834;9.132;2023-05-07T14:38:42;98152.81;;;17.79;79.92
15694;BME280;7947;48.834;9.132;2023-05-07T14:41:47;98153.63;;;17.79;80.23
15694;BME280;7947;48.834;9.132;2023-05-07T14:44:49;98153.63;;;17.79;81.07
15694;BME280;7947;48.834;9.132;2023-05-07T14:47:52;98139.44;;;17.82;83.08
15694;BME280;7947;48.834;9.132;2023-05-07T14:50:55;98126.34;;;17.84;82.46
15694;BME280;7947;48.834;9.132;2023-05-07T14:53:58;98135.44;;;17.80;83.54
15694;BME280;7947;48.834;9.132;2023-05-07T14:57:04;98134.97;;;17.69;84.79
15694;BME280;7947;48.834;9.132;2023-05-07T15:00:09;98128.13;;;17.63;85.13
15694;BME280;7947;48.834;9.132;2023-05-07T15:03:12;98131.47;;;17.60;85.57
15694;BME280;7947;48.834;9.132;2023-05-07T15:06:15;98141.69;;;17.55;85.20
15694;BME280;7947;48.834;9.132;2023-05-07T15:09:18;98136.09;;;17.60;84.91
15694;BME280;7947;48.834;9.132;2023-05-07T15:12:22;98141.81;;;17.75;87.29
15694;BME280;7947;48.834;9.132;2023-05-07T15:15:25;98137.69;;;17.78;88.24
15694;BME280;7947;48.834;9.132;2023-05-07T15:18:28;98135.78;;;17.78;87.41
15694;BME280;7947;48.834;9.132;2023-05-07T15:21:31;98150.75;;;17.76;88.02
15694;BME280;7947;48.834;9.132;2023-05-07T15:24:36;98151.09;;;17.74;89.10
15694;BME280;7947;48.834;9.132;2023-05-07T15:27:40;98144.53;;;17.75;89.02
15694;BME280;7947;48.834;9.132;2023-05-07T15:30:43;98142.94;;;17.74;89.31
15694;BME280;7947;48.834;9.132;2023-05-07T15:33:45;98143.59;;;17.80;89.31
15694;BME280;7947;48.834;9.132;2023-05-07T15:36:48;98151.06;;;17.91;89.21
15694;BME280;7947;48.834;9.132;2023-05-07T15:39:51;98154.72;;;17.95;89.35
15694;BME280;7947;48.834;9.132;2023-05-07T15:42:55;98147.88;;;17.98;89.71
15694;BME280;7947;48.834;9.132;2023-05-07T15:45:58;98161.13;;;17.99;89.98
15694;BME280;7947;48.834;9.132;2023-05-07T15:49:02;98153.78;;;18.00;90.67
15694;BME280;7947;48.834;9.132;2023-05-07T15:52:05;98153.13;;;18.03;91.21
15694;BME280;7947;48.834;9.132;2023-05-07T15:55:09;98150.69;;;18.10;91.42
15694;BME280;7947;48.834;9.132;2023-05-07T15:58:13;98162.69;;;18.09;91.89
15694;BME280;7947;48.834;9.132;2023-05-07T16:01:16;98164.94;;;18.07;92.08
15694;BME280;7947;48.834;9.132;2023-05-07T16:04:19;98165.75;;;17.99;91.67
15694;BME280;7947;48.834;9.132;2023-05-07T16:07:22;98171.50;;;17.97;91.54
15694;BME280;7947;48.834;9.132;2023-05-07T16:10:25;98184.59;;;17.95;91.30
15694;BME280;7947;48.834;9.132;2023-05-07T16:13:29;98200.84;;;17.87;91.35
15694;BME280;7947;48.834;9.132;2023-05-07T16:16:32;98213.31;;;17.88;91.55
15694;BME280;7947;48.834;9.132;2023-05-07T16:19:35;98219.84;;;17.87;90.77
15694;BME280;7947;48.834;9.132;2023-05-07T16:22:37;98218.41;;;17.81;90.89
15694;BME280;7947;48.834;9.132;2023-05-07T16:25:40;98222.56;;;17.78;91.48